sensor_id;sensor_type;location;lat;lon;timestamp;pressure;altitude;pressure_sealevel;temperature;humidity
65880;BME280;52661;51.364;6.054;2022-08-26T00:00:27;101086.72;;;22.21;83.78
65880;BME280;52661;51.364;6.054;2022-08-26T00:02:53;101089.19;;;22.19;83.77
65880;BME280;52661;51.364;6.054;2022-08-26T00:05:18;101091.66;;;22.26;83.59
65880;BME280;52661;51.364;6.054;2022-08-26T00:07:44;101100.97;;;21.92;85.02
65880;BME280;52661;51.364;6.054;2022-08-26T00:10:10;101103.47;;;22.18;83.75
65880;BME280;52661;51.364;6.054;2022-08-26T00:12:37;101104.19;;;22.00;84.92
65880;BME280;52661;51.364;6.054;2022-08-26T00:15:04;101107.31;;;21.71;86.67
65880;BME280;52661;51.364;6.054;2022-08-26T00:17:30;101103.25;;;21.85;86.04
65880;BME280;52661;51.364;6.054;2022-08-26T00:19:55;101113.81;;;21.86;85.57
65880;BME280;52661;51.364;6.054;2022-08-26T00:22:21;101104.97;;;22.00;84.81
65880;BME280;52661;51.364;6.054;2022-08-26T00:24:47;101105.50;;;21.77;85.99
65880;BME280;52661;51.364;6.054;2022-08-26T00:27:12;101103.97;;;21.76;86.85
65880;BME280;52661;51.364;6.054;2022-08-26T00:29:37;101106.06;;;21.63;87.10
65880;BME280;52661;51.364;6.054;2022-08-26T00:32:03;101110.63;;;21.57;87.44
65880;BME280;52661;51.364;6.054;2022-08-26T00:34:28;101111.56;;;21.54;88.23
65880;BME280;52661;51.364;6.054;2022-08-26T00:36:53;101113.88;;;21.55;88.14
65880;BME280;52661;51.364;6.054;2022-08-26T00:39:19;101113.41;;;21.57;87.90
65880;BME280;52661;51.364;6.054;2022-08-26T00:41:45;101125.09;;;21.61;87.46
65880;BME280;52661;51.364;6.054;2022-08-26T00:44:10;101127.31;;;21.44;88.39
65880;BME280;52661;51.364;6.054;2022-08-26T00:46:40;101116.78;;;21.52;88.19
65880;BME280;52661;51.364;6.054;2022-08-26T00:49:56;101119.56;;;21.61;87.42
65880;BME280;52661;51.364;6.054;2022-08-26T00:51:57;101123.25;;;21.67;87.22
65880;BME280;52661;51.364;6.054;2022-08-26T00:54:26;101127.81;;;21.52;88.09
65880;BME280;52661;51.364;6.054;2022-08-26T00:56:59;101123.38;;;21.54;88.18
65880;BME280;52661;51.364;6.054;2022-08-26T00:59:25;101125.72;;;21.65;87.40
65880;BME280;52661;51.364;6.054;2022-08-26T01:01:51;101124.06;;;21.37;89.14
65880;BME280;52661;51.364;6.054;2022-08-26T01:04:19;101118.75;;;21.21;90.15
65880;BME280;52661;51.364;6.054;2022-08-26T01:06:47;101120.03;;;21.29;89.93
65880;BME280;52661;51.364;6.054;2022-08-26T01:09:13;101122.78;;;21.29;89.91
65880;BME280;52661;51.364;6.054;2022-08-26T01:11:39;101121.88;;;21.32;89.61
65880;BME280;52661;51.364;6.054;2022-08-26T01:14:07;101122.91;;;21.25;90.38
65880;BME280;52661;51.364;6.054;2022-08-26T01:16:32;101134.88;;;21.22;90.37
65880;BME280;52661;51.364;6.054;2022-08-26T01:19:03;101126.31;;;21.29;89.66
65880;BME280;52661;51.364;6.054;2022-08-26T01:21:35;101129.84;;;21.30;89.94
65880;BME280;52661;51.364;6.054;2022-08-26T01:24:04;101127.09;;;21.30;90.02
65880;BME280;52661;51.364;6.054;2022-08-26T01:26:33;101138.63;;;21.37;89.54
65880;BME280;52661;51.364;6.054;2022-08-26T01:29:01;101132.66;;;21.39;89.15
65880;BME280;52661;51.364;6.054;2022-08-26T01:31:35;101134.13;;;21.31;89.55
65880;BME280;52661;51.364;6.054;2022-08-26T01:34:25;101136.28;;;21.27;89.98
65880;BME280;52661;51.364;6.054;2022-08-26T01:36:55;101134.13;;;21.31;90.12
65880;BME280;52661;51.364;6.054;2022-08-26T01:39:21;101136.19;;;21.39;89.51
65880;BME280;52661;51.364;6.054;2022-08-26T01:41:47;101146.31;;;21.42;89.26
65880;BME280;52661;51.364;6.054;2022-08-26T01:44:19;101138.53;;;21.19;90.45
65880;BME280;52661;51.364;6.054;2022-08-26T01:46:48;101147.94;;;21.31;89.78
65880;BME280;52661;51.364;6.054;2022-08-26T01:49:14;101151.34;;;21.35;89.46
65880;BME280;52661;51.364;6.054;2022-08-26T01:51:39;101156.47;;;21.45;88.78
65880;BME280;52661;51.364;6.054;2022-08-26T01:54:06;101158.47;;;21.45;88.71
65880;BME280;52661;51.364;6.054;2022-08-26T01:56:33;101162.34;;;21.56;88.34
65880;BME280;52661;51.364;6.054;2022-08-26T01:59:02;101165.94;;;21.66;87.61
65880;BME280;52661;51.364;6.054;2022-08-26T02:01:27;101156.38;;;21.58;87.84
65880;BME280;52661;51.364;6.054;2022-08-26T02:06:43;101162.13;;;21.42;88.83
65880;BME280;52661;51.364;6.054;2022-08-26T02:09:09;101160.88;;;21.34;89.16
65880;BME280;52661;51.364;6.054;2022-08-26T02:11:35;101153.78;;;21.33;89.31
65880;BME280;52661;51.364;6.054;2022-08-26T02:14:19;101156.22;;;21.31;89.35
65880;BME280;52661;51.364;6.054;2022-08-26T02:16:46;101147.38;;;21.36;88.90
65880;BME280;52661;51.364;6.054;2022-08-26T02:19:25;101148.78;;;21.40;88.34
65880;BME280;52661;51.364;6.054;2022-08-26T02:21:52;101152.94;;;21.45;88.15
65880;BME280;52661;51.364;6.054;2022-08-26T02:24:21;101161.97;;;21.45;87.96
65880;BME280;52661;51.364;6.054;2022-08-26T02:26:47;101162.69;;;21.58;87.54
65880;BME280;52661;51.364;6.054;2022-08-26T02:29:29;101158.53;;;21.32;88.36
65880;BME280;52661;51.364;6.054;2022-08-26T02:31:57;101160.25;;;21.39;88.02
65880;BME280;52661;51.364;6.054;2022-08-26T02:34:28;101164.94;;;21.51;87.80
65880;BME280;52661;51.364;6.054;2022-08-26T02:37:06;101172.16;;;21.48;87.35
65880;BME280;52661;51.364;6.054;2022-08-26T02:39:33;101175.84;;;21.54;87.16
65880;BME280;52661;51.364;6.054;2022-08-26T02:41:59;101180.22;;;21.43;87.30
65880;BME280;52661;51.364;6.054;2022-08-26T02:44:25;101174.34;;;21.32;88.47
65880;BME280;52661;51.364;6.054;2022-08-26T02:46:51;101172.22;;;21.36;87.77
65880;BME280;52661;51.364;6.054;2022-08-26T02:49:17;101172.59;;;21.47;87.00
65880;BME280;52661;51.364;6.054;2022-08-26T02:51:44;101176.22;;;21.66;86.44
65880;BME280;52661;51.364;6.054;2022-08-26T02:54:09;101179.41;;;21.55;85.99
65880;BME280;52661;51.364;6.054;2022-08-26T02:56:35;101182.19;;;21.64;85.80
65880;BME280;52661;51.364;6.054;2022-08-26T02:59:00;101189.13;;;21.69;85.29
65880;BME280;52661;51.364;6.054;2022-08-26T03:01:29;101189.16;;;21.47;86.44
65880;BME280;52661;51.364;6.054;2022-08-26T03:03:55;101177.59;;;21.39;86.62
65880;BME280;52661;51.364;6.054;2022-08-26T03:06:22;101181.34;;;21.24;87.38
65880;BME280;52661;51.364;6.054;2022-08-26T03:08:48;101178.31;;;21.31;87.33
65880;BME280;52661;51.364;6.054;2022-08-26T03:11:13;101179.06;;;21.53;86.46
65880;BME280;52661;51.364;6.054;2022-08-26T03:13:39;101182.94;;;21.55;86.15
65880;BME280;52661;51.364;6.054;2022-08-26T03:16:05;101177.31;;;21.68;85.95
65880;BME280;52661;51.364;6.054;2022-08-26T03:18:31;101182.41;;;21.79;85.15
65880;BME280;52661;51.364;6.054;2022-08-26T03:20:57;101181.06;;;21.83;84.83
65880;BME280;52661;51.364;6.054;2022-08-26T03:23:22;101185.81;;;21.83;84.59
65880;BME280;52661;51.364;6.054;2022-08-26T03:25:50;101188.44;;;21.86;84.25
65880;BME280;52661;51.364;6.054;2022-08-26T03:28:15;101185.59;;;21.99;83.85
65880;BME280;52661;51.364;6.054;2022-08-26T03:30:42;101180.06;;;21.99;83.76
65880;BME280;52661;51.364;6.054;2022-08-26T03:33:09;101179.38;;;21.86;84.26
65880;BME280;52661;51.364;6.054;2022-08-26T03:35:36;101185.81;;;21.83;83.96
65880;BME280;52661;51.364;6.054;2022-08-26T03:38:02;101185.59;;;21.68;84.74
65880;BME280;52661;51.364;6.054;2022-08-26T03:40:28;101190.25;;;21.80;84.15
65880;BME280;52661;51.364;6.054;2022-08-26T03:42:53;101190.91;;;21.84;83.71
65880;BME280;52661;51.364;6.054;2022-08-26T03:45:19;101179.50;;;21.82;84.03
65880;BME280;52661;51.364;6.054;2022-08-26T03:47:46;101180.56;;;21.76;84.32
65880;BME280;52661;51.364;6.054;2022-08-26T03:50:15;101187.13;;;21.69;84.50
65880;BME280;52661;51.364;6.054;2022-08-26T03:52:41;101185.56;;;21.59;85.30
65880;BME280;52661;51.364;6.054;2022-08-26T03:55:08;101178.50;;;21.67;85.07
65880;BME280;52661;51.364;6.054;2022-08-26T03:57:33;101182.19;;;21.64;85.32
65880;BME280;52661;51.364;6.054;2022-08-26T03:59:59;101182.19;;;21.64;85.15
65880;BME280;52661;51.364;6.054;2022-08-26T04:02:25;101185.84;;;21.61;85.46
65880;BME280;52661;51.364;6.054;2022-08-26T04:04:51;101184.31;;;21.60;85.39
65880;BME280;52661;51.364;6.054;2022-08-26T04:07:16;101186.53;;;21.74;84.45
65880;BME280;52661;51.364;6.054;2022-08-26T04:09:41;101180.84;;;21.69;84.82
65880;BME280;52661;51.364;6.054;2022-08-26T04:12:07;101186.22;;;21.72;84.61
65880;BME280;52661;51.364;6.054;2022-08-26T04:14:33;101187.78;;;21.73;84.51
65880;BME280;52661;51.364;6.054;2022-08-26T04:16:59;101188.41;;;21.77;84.57
65880;BME280;52661;51.364;6.054;2022-08-26T04:19:25;101194.06;;;21.74;84.48
65880;BME280;52661;51.364;6.054;2022-08-26T04:21:51;101187.94;;;21.79;84.33
65880;BME280;52661;51.364;6.054;2022-08-26T04:24:19;101194.47;;;21.63;85.42
65880;BME280;52661;51.364;6.054;2022-08-26T04:26:45;101197.38;;;21.59;85.70
65880;BME280;52661;51.364;6.054;2022-08-26T04:29:14;101194.34;;;21.67;85.38
65880;BME280;52661;51.364;6.054;2022-08-26T04:31:40;101199.47;;;21.77;84.77
65880;BME280;52661;51.364;6.054;2022-08-26T04:34:06;101199.09;;;21.66;85.23
65880;BME280;52661;51.364;6.054;2022-08-26T04:36:32;101196.59;;;21.59;85.77
65880;BME280;52661;51.364;6.054;2022-08-26T04:39:00;101194.81;;;21.43;86.76
65880;BME280;52661;51.364;6.054;2022-08-26T04:41:26;101196.16;;;21.39;87.17
65880;BME280;52661;51.364;6.054;2022-08-26T04:43:52;101197.84;;;21.36;87.32
65880;BME280;52661;51.364;6.054;2022-08-26T04:46:20;101198.09;;;21.51;86.67
65880;BME280;52661;51.364;6.054;2022-08-26T04:48:47;101205.84;;;21.65;85.60
65880;BME280;52661;51.364;6.054;2022-08-26T04:51:13;101202.78;;;21.63;85.58
65880;BME280;52661;51.364;6.054;2022-08-26T04:53:38;101205.34;;;21.57;85.70
65880;BME280;52661;51.364;6.054;2022-08-26T04:56:04;101200.38;;;21.52;86.22
65880;BME280;52661;51.364;6.054;2022-08-26T04:58:29;101197.03;;;21.57;85.74
65880;BME280;52661;51.364;6.054;2022-08-26T05:00:55;101204.28;;;21.64;85.61
65880;BME280;52661;51.364;6.054;2022-08-26T05:03:21;101207.81;;;21.65;85.40
65880;BME280;52661;51.364;6.054;2022-08-26T05:05:48;101204.56;;;21.57;85.47
65880;BME280;52661;51.364;6.054;2022-08-26T05:08:15;101205.66;;;21.59;85.34
65880;BME280;52661;51.364;6.054;2022-08-26T05:10:45;101200.44;;;21.62;85.34
65880;BME280;52661;51.364;6.054;2022-08-26T05:13:13;101201.75;;;21.48;85.93
65880;BME280;52661;51.364;6.054;2022-08-26T05:15:39;101203.88;;;21.44;86.59
65880;BME280;52661;51.364;6.054;2022-08-26T05:18:06;101206.81;;;21.49;86.20
65880;BME280;52661;51.364;6.054;2022-08-26T05:20:32;101203.63;;;21.51;86.57
65880;BME280;52661;51.364;6.054;2022-08-26T05:23:02;101204.69;;;21.53;86.00
65880;BME280;52661;51.364;6.054;2022-08-26T05:25:28;101210.63;;;21.43;86.50
65880;BME280;52661;51.364;6.054;2022-08-26T05:27:54;101214.59;;;21.42;86.49
65880;BME280;52661;51.364;6.054;2022-08-26T05:30:19;101207.81;;;21.34;86.85
65880;BME280;52661;51.364;6.054;2022-08-26T05:32:47;101203.41;;;21.24;87.57
65880;BME280;52661;51.364;6.054;2022-08-26T05:35:13;101210.69;;;21.30;87.14
65880;BME280;52661;51.364;6.054;2022-08-26T05:37:39;101213.91;;;21.29;87.50
65880;BME280;52661;51.364;6.054;2022-08-26T05:40:05;101206.97;;;21.24;87.24
65880;BME280;52661;51.364;6.054;2022-08-26T05:42:31;101203.38;;;21.36;87.09
65880;BME280;52661;51.364;6.054;2022-08-26T05:44:56;101209.66;;;21.37;86.88
65880;BME280;52661;51.364;6.054;2022-08-26T05:47:24;101215.69;;;21.44;86.47
65880;BME280;52661;51.364;6.054;2022-08-26T05:49:50;101222.75;;;21.45;86.38
65880;BME280;52661;51.364;6.054;2022-08-26T05:52:15;101217.44;;;21.29;87.07
65880;BME280;52661;51.364;6.054;2022-08-26T05:54:41;101222.81;;;21.33;87.12
65880;BME280;52661;51.364;6.054;2022-08-26T05:57:06;101223.72;;;21.30;87.46
65880;BME280;52661;51.364;6.054;2022-08-26T05:59:32;101220.72;;;21.37;86.83
65880;BME280;52661;51.364;6.054;2022-08-26T06:01:57;101222.75;;;21.24;87.68
65880;BME280;52661;51.364;6.054;2022-08-26T06:04:23;101225.59;;;21.33;87.50
65880;BME280;52661;51.364;6.054;2022-08-26T06:06:52;101228.13;;;21.27;87.48
65880;BME280;52661;51.364;6.054;2022-08-26T06:09:17;101226.66;;;21.35;86.90
65880;BME280;52661;51.364;6.054;2022-08-26T06:11:42;101228.09;;;21.40;86.78
65880;BME280;52661;51.364;6.054;2022-08-26T06:14:08;101225.63;;;21.42;86.86
65880;BME280;52661;51.364;6.054;2022-08-26T06:16:37;101228.91;;;21.28;87.65
65880;BME280;52661;51.364;6.054;2022-08-26T06:19:04;101235.09;;;21.32;87.70
65880;BME280;52661;51.364;6.054;2022-08-26T06:21:32;101230.91;;;21.27;87.70
65880;BME280;52661;51.364;6.054;2022-08-26T06:24:05;101236.50;;;21.36;87.62
65880;BME280;52661;51.364;6.054;2022-08-26T06:26:52;101241.47;;;21.20;88.20
65880;BME280;52661;51.364;6.054;2022-08-26T06:29:19;101244.41;;;21.47;87.39
65880;BME280;52661;51.364;6.054;2022-08-26T06:31:45;101247.41;;;21.40;87.18
65880;BME280;52661;51.364;6.054;2022-08-26T06:34:11;101252.81;;;21.22;88.58
65880;BME280;52661;51.364;6.054;2022-08-26T06:36:36;101248.59;;;21.51;87.65
65880;BME280;52661;51.364;6.054;2022-08-26T06:39:08;101254.03;;;21.42;86.89
65880;BME280;52661;51.364;6.054;2022-08-26T06:41:35;101252.16;;;21.39;87.61
65880;BME280;52661;51.364;6.054;2022-08-26T06:44:02;101258.59;;;21.58;86.54
65880;BME280;52661;51.364;6.054;2022-08-26T06:46:28;101254.22;;;21.70;85.66
65880;BME280;52661;51.364;6.054;2022-08-26T06:48:54;101249.88;;;21.59;86.12
65880;BME280;52661;51.364;6.054;2022-08-26T06:51:22;101250.19;;;21.40;87.13
65880;BME280;52661;51.364;6.054;2022-08-26T06:53:50;101258.66;;;21.45;86.69
65880;BME280;52661;51.364;6.054;2022-08-26T06:56:16;101257.56;;;21.43;86.48
65880;BME280;52661;51.364;6.054;2022-08-26T06:58:43;101259.94;;;21.53;86.55
65880;BME280;52661;51.364;6.054;2022-08-26T07:01:23;101260.84;;;21.29;87.51
65880;BME280;52661;51.364;6.054;2022-08-26T07:03:52;101262.94;;;21.25;87.66
65880;BME280;52661;51.364;6.054;2022-08-26T07:06:18;101259.56;;;21.42;87.31
65880;BME280;52661;51.364;6.054;2022-08-26T07:08:45;101268.28;;;21.63;86.39
65880;BME280;52661;51.364;6.054;2022-08-26T07:11:11;101265.91;;;21.74;85.53
65880;BME280;52661;51.364;6.054;2022-08-26T07:13:37;101265.50;;;21.84;85.25
65880;BME280;52661;51.364;6.054;2022-08-26T07:16:04;101265.28;;;21.91;84.80
65880;BME280;52661;51.364;6.054;2022-08-26T07:18:30;101266.78;;;21.92;84.22
65880;BME280;52661;51.364;6.054;2022-08-26T07:20:55;101270.66;;;21.95;84.20
65880;BME280;52661;51.364;6.054;2022-08-26T07:23:21;101269.19;;;22.12;83.48
65880;BME280;52661;51.364;6.054;2022-08-26T07:25:46;101274.59;;;22.16;83.54
65880;BME280;52661;51.364;6.054;2022-08-26T07:28:11;101272.66;;;22.34;82.76
65880;BME280;52661;51.364;6.054;2022-08-26T07:30:39;101269.44;;;22.36;82.41
65880;BME280;52661;51.364;6.054;2022-08-26T07:33:05;101279.84;;;22.23;83.02
65880;BME280;52661;51.364;6.054;2022-08-26T07:35:31;101285.06;;;22.21;82.87
65880;BME280;52661;51.364;6.054;2022-08-26T07:37:56;101288.41;;;22.16;82.34
65880;BME280;52661;51.364;6.054;2022-08-26T07:40:22;101285.84;;;21.99;82.96
65880;BME280;52661;51.364;6.054;2022-08-26T07:42:48;101284.09;;;22.15;82.76
65880;BME280;52661;51.364;6.054;2022-08-26T07:45:38;101287.69;;;22.24;82.38
65880;BME280;52661;51.364;6.054;2022-08-26T07:48:03;101289.53;;;21.96;83.15
65880;BME280;52661;51.364;6.054;2022-08-26T07:50:29;101284.03;;;21.53;84.65
65880;BME280;52661;51.364;6.054;2022-08-26T07:52:54;101288.47;;;21.50;85.70
65880;BME280;52661;51.364;6.054;2022-08-26T07:55:20;101289.94;;;21.64;85.24
65880;BME280;52661;51.364;6.054;2022-08-26T07:57:47;101286.59;;;21.47;84.80
65880;BME280;52661;51.364;6.054;2022-08-26T08:00:14;101295.66;;;21.48;85.25
65880;BME280;52661;51.364;6.054;2022-08-26T08:02:41;101298.09;;;21.68;84.44
65880;BME280;52661;51.364;6.054;2022-08-26T08:05:09;101293.81;;;21.67;84.55
65880;BME280;52661;51.364;6.054;2022-08-26T08:07:34;101299.69;;;21.56;85.22
65880;BME280;52661;51.364;6.054;2022-08-26T08:10:01;101296.88;;;21.47;85.54
65880;BME280;52661;51.364;6.054;2022-08-26T08:12:26;101299.06;;;21.52;85.74
65880;BME280;52661;51.364;6.054;2022-08-26T08:14:51;101303.88;;;21.39;86.07
65880;BME280;52661;51.364;6.054;2022-08-26T08:17:17;101301.19;;;21.48;85.80
65880;BME280;52661;51.364;6.054;2022-08-26T08:19:42;101300.66;;;21.62;85.67
65880;BME280;52661;51.364;6.054;2022-08-26T08:22:07;101301.75;;;21.43;85.87
65880;BME280;52661;51.364;6.054;2022-08-26T08:24:33;101299.19;;;21.48;85.71
65880;BME280;52661;51.364;6.054;2022-08-26T08:27:01;101304.34;;;21.59;85.01
65880;BME280;52661;51.364;6.054;2022-08-26T08:29:28;101297.84;;;21.53;85.21
65880;BME280;52661;51.364;6.054;2022-08-26T08:31:55;101290.44;;;21.50;85.29
65880;BME280;52661;51.364;6.054;2022-08-26T08:34:20;101300.81;;;21.58;85.34
65880;BME280;52661;51.364;6.054;2022-08-26T08:36:46;101302.97;;;21.64;84.75
65880;BME280;52661;51.364;6.054;2022-08-26T08:39:12;101302.53;;;21.65;84.57
65880;BME280;52661;51.364;6.054;2022-08-26T08:41:59;101301.31;;;21.44;85.31
65880;BME280;52661;51.364;6.054;2022-08-26T08:44:30;101302.56;;;21.52;85.68
65880;BME280;52661;51.364;6.054;2022-08-26T08:47:31;101300.31;;;21.38;85.58
65880;BME280;52661;51.364;6.054;2022-08-26T08:50:05;101302.66;;;21.40;85.59
65880;BME280;52661;51.364;6.054;2022-08-26T08:52:36;101304.38;;;21.46;85.78
65880;BME280;52661;51.364;6.054;2022-08-26T08:55:04;101306.25;;;21.49;85.31
65880;BME280;52661;51.364;6.054;2022-08-26T08:57:39;101305.41;;;21.40;86.01
65880;BME280;52661;51.364;6.054;2022-08-26T09:00:11;101304.84;;;21.45;85.74
65880;BME280;52661;51.364;6.054;2022-08-26T09:03:00;101304.78;;;21.57;85.73
65880;BME280;52661;51.364;6.054;2022-08-26T09:05:30;101311.47;;;21.47;85.13
65880;BME280;52661;51.364;6.054;2022-08-26T09:08:03;101309.59;;;21.44;85.49
65880;BME280;52661;51.364;6.054;2022-08-26T09:13:00;101320.84;;;21.72;84.30
65880;BME280;52661;51.364;6.054;2022-08-26T09:15:38;101308.69;;;21.69;84.34
65880;BME280;52661;51.364;6.054;2022-08-26T09:18:24;101310.56;;;21.72;83.60
65880;BME280;52661;51.364;6.054;2022-08-26T09:20:56;101315.31;;;21.72;83.85
65880;BME280;52661;51.364;6.054;2022-08-26T09:23:23;101323.41;;;21.66;83.94
65880;BME280;52661;51.364;6.054;2022-08-26T09:25:58;101322.44;;;21.60;84.56
65880;BME280;52661;51.364;6.054;2022-08-26T09:28:26;101318.59;;;21.57;83.95
65880;BME280;52661;51.364;6.054;2022-08-26T09:33:36;101332.22;;;21.52;83.24
65880;BME280;52661;51.364;6.054;2022-08-26T09:36:38;101326.19;;;21.32;84.18
65880;BME280;52661;51.364;6.054;2022-08-26T09:39:23;101327.19;;;21.38;84.02
65880;BME280;52661;51.364;6.054;2022-08-26T09:42:23;101326.72;;;21.39;84.72
65880;BME280;52661;51.364;6.054;2022-08-26T09:44:55;101329.00;;;21.53;84.45
65880;BME280;52661;51.364;6.054;2022-08-26T09:47:30;101323.72;;;21.68;84.32
65880;BME280;52661;51.364;6.054;2022-08-26T09:50:00;101337.88;;;21.70;83.62
65880;BME280;52661;51.364;6.054;2022-08-26T09:52:28;101329.13;;;21.50;84.00
65880;BME280;52661;51.364;6.054;2022-08-26T09:55:21;101333.56;;;21.69;83.66
65880;BME280;52661;51.364;6.054;2022-08-26T09:57:49;101330.28;;;21.62;82.49
65880;BME280;52661;51.364;6.054;2022-08-26T10:00:36;101326.69;;;21.74;83.08
65880;BME280;52661;51.364;6.054;2022-08-26T10:03:05;101322.91;;;21.80;83.50
65880;BME280;52661;51.364;6.054;2022-08-26T10:05:40;101327.44;;;21.74;82.73
65880;BME280;52661;51.364;6.054;2022-08-26T10:08:22;101330.69;;;21.73;82.65
65880;BME280;52661;51.364;6.054;2022-08-26T10:10:49;101329.38;;;21.86;82.68
65880;BME280;52661;51.364;6.054;2022-08-26T10:13:21;101331.38;;;21.86;82.41
65880;BME280;52661;51.364;6.054;2022-08-26T10:16:05;101331.59;;;21.91;82.34
65880;BME280;52661;51.364;6.054;2022-08-26T10:18:36;101330.28;;;21.83;82.34
65880;BME280;52661;51.364;6.054;2022-08-26T10:21:08;101327.19;;;21.81;83.05
65880;BME280;52661;51.364;6.054;2022-08-26T10:23:41;101329.50;;;21.61;82.27
65880;BME280;52661;51.364;6.054;2022-08-26T10:26:57;101334.13;;;21.64;81.82
65880;BME280;52661;51.364;6.054;2022-08-26T10:29:18;101328.34;;;21.71;81.72
65880;BME280;52661;51.364;6.054;2022-08-26T10:31:59;101325.78;;;21.77;81.97
65880;BME280;52661;51.364;6.054;2022-08-26T10:34:26;101324.88;;;21.80;81.36
65880;BME280;52661;51.364;6.054;2022-08-26T10:36:56;101333.34;;;21.85;81.14
65880;BME280;52661;51.364;6.054;2022-08-26T10:39:30;101326.94;;;21.88;81.57
65880;BME280;52661;51.364;6.054;2022-08-26T10:42:08;101330.06;;;21.90;81.87
65880;BME280;52661;51.364;6.054;2022-08-26T10:44:39;101330.06;;;21.90;81.98
65880;BME280;52661;51.364;6.054;2022-08-26T10:47:11;101323.81;;;21.77;81.28
65880;BME280;52661;51.364;6.054;2022-08-26T10:49:39;101322.91;;;21.80;81.36
65880;BME280;52661;51.364;6.054;2022-08-26T10:52:16;101329.91;;;21.72;81.28
65880;BME280;52661;51.364;6.054;2022-08-26T11:00:07;101319.38;;;21.80;80.66
65880;BME280;52661;51.364;6.054;2022-08-26T11:03:02;101326.25;;;21.97;80.06
65880;BME280;52661;51.364;6.054;2022-08-26T11:05:30;101326.56;;;21.99;79.39
65880;BME280;52661;51.364;6.054;2022-08-26T11:13:15;101334.09;;;21.77;81.02
65880;BME280;52661;51.364;6.054;2022-08-26T11:18:36;101327.69;;;21.67;81.42
65880;BME280;52661;51.364;6.054;2022-08-26T11:21:02;101330.69;;;21.73;81.10
65880;BME280;52661;51.364;6.054;2022-08-26T11:23:38;101327.13;;;21.72;80.61
65880;BME280;52661;51.364;6.054;2022-08-26T11:28:41;101328.28;;;21.84;81.38
65880;BME280;52661;51.364;6.054;2022-08-26T11:34:04;101323.53;;;21.84;80.52
65880;BME280;52661;51.364;6.054;2022-08-26T11:39:19;101330.53;;;21.76;81.20
65880;BME280;52661;51.364;6.054;2022-08-26T11:41:49;101333.34;;;21.85;80.94
65880;BME280;52661;51.364;6.054;2022-08-26T11:44:21;101335.00;;;21.95;80.45
65880;BME280;52661;51.364;6.054;2022-08-26T11:46:59;101333.91;;;21.93;80.72
65880;BME280;52661;51.364;6.054;2022-08-26T11:49:26;101338.72;;;22.01;80.79
65880;BME280;52661;51.364;6.054;2022-08-26T11:51:52;101333.50;;;22.03;80.49
65880;BME280;52661;51.364;6.054;2022-08-26T11:54:31;101333.19;;;22.01;80.57
65880;BME280;52661;51.364;6.054;2022-08-26T11:56:56;101344.25;;;22.01;80.16
65880;BME280;52661;51.364;6.054;2022-08-26T11:59:31;101341.53;;;22.11;79.97
65880;BME280;52661;51.364;6.054;2022-08-26T12:01:59;101341.22;;;22.08;80.08
65880;BME280;52661;51.364;6.054;2022-08-26T12:04:29;101344.38;;;21.98;80.12
65880;BME280;52661;51.364;6.054;2022-08-26T12:06:56;101343.06;;;21.90;80.00
65880;BME280;52661;51.364;6.054;2022-08-26T12:09:28;101344.09;;;21.83;80.59
65880;BME280;52661;51.364;6.054;2022-08-26T12:12:24;101341.34;;;21.83;81.06
65880;BME280;52661;51.364;6.054;2022-08-26T12:17:35;101347.38;;;21.69;81.45
65880;BME280;52661;51.364;6.054;2022-08-26T12:20:00;101338.19;;;21.72;82.25
65880;BME280;52661;51.364;6.054;2022-08-26T12:22:31;101357.28;;;21.79;81.65
65880;BME280;52661;51.364;6.054;2022-08-26T12:25:02;101350.59;;;21.68;82.06
65880;BME280;52661;51.364;6.054;2022-08-26T12:27:35;101347.94;;;21.42;82.98
65880;BME280;52661;51.364;6.054;2022-08-26T12:30:11;101352.44;;;21.71;82.94
65880;BME280;52661;51.364;6.054;2022-08-26T12:32:39;101360.56;;;21.87;82.22
65880;BME280;52661;51.364;6.054;2022-08-26T12:35:09;101344.28;;;21.67;81.97
65880;BME280;52661;51.364;6.054;2022-08-26T12:37:38;101351.94;;;21.85;82.06
65880;BME280;52661;51.364;6.054;2022-08-26T12:40:27;101345.25;;;21.51;82.64
65880;BME280;52661;51.364;6.054;2022-08-26T12:42:57;101351.75;;;21.79;82.04
65880;BME280;52661;51.364;6.054;2022-08-26T12:46:05;101358.34;;;21.82;80.66
65880;BME280;52661;51.364;6.054;2022-08-26T12:48:33;101349.25;;;21.72;81.47
65880;BME280;52661;51.364;6.054;2022-08-26T12:51:00;101352.19;;;21.78;81.07
65880;BME280;52661;51.364;6.054;2022-08-26T12:53:29;101357.28;;;21.79;80.54
65880;BME280;52661;51.364;6.054;2022-08-26T12:55:57;101356.22;;;21.64;80.44
65880;BME280;52661;51.364;6.054;2022-08-26T13:00:52;101355.41;;;21.54;81.84
65880;BME280;52661;51.364;6.054;2022-08-26T13:06:22;101355.66;;;21.47;81.36
65880;BME280;52661;51.364;6.054;2022-08-26T13:13:50;101356.03;;;21.24;82.32
65880;BME280;52661;51.364;6.054;2022-08-26T13:16:18;101358.25;;;21.29;82.93
65880;BME280;52661;51.364;6.054;2022-08-26T13:18:45;101358.78;;;21.37;82.83
65880;BME280;52661;51.364;6.054;2022-08-26T13:21:17;101352.84;;;21.26;82.40
65880;BME280;52661;51.364;6.054;2022-08-26T13:23:43;101339.41;;;21.15;83.28
65880;BME280;52661;51.364;6.054;2022-08-26T13:26:09;101340.94;;;21.03;83.26
65880;BME280;52661;51.364;6.054;2022-08-26T13:28:35;101331.00;;;21.06;83.13
65880;BME280;52661;51.364;6.054;2022-08-26T13:31:00;101324.50;;;21.00;83.23
65880;BME280;52661;51.364;6.054;2022-08-26T13:33:26;101316.09;;;21.03;83.79
65880;BME280;52661;51.364;6.054;2022-08-26T13:35:52;101317.44;;;20.99;83.14
65880;BME280;52661;51.364;6.054;2022-08-26T13:38:18;101295.81;;;20.97;83.45
65880;BME280;52661;51.364;6.054;2022-08-26T13:40:44;101290.63;;;20.99;83.86
65880;BME280;52661;51.364;6.054;2022-08-26T13:43:10;101290.97;;;21.01;83.62